KBOSKBML

Guest
Details From KBOS - Boston Logan Intl
To KBML - Berlin Muni
Flight Number -
Tags Generated
Created
Modified
Stats Distance 134 nm / 248 km
Max Altitude 0 ft / 0 m
Waypoints 2
Social Downloads 1
Likes 0
Share VATSIM

Download

Looking for another format? Having issues loading an existing format? Contact us
Advertisement - Login to hide

Notes

Generated

Route

KBOS KBML

ID Type Via Altitude Latitude Longitude Leg Dist Tot Dist Heading (true) Name
O KBOS APT - 0 ft / 0 m 42.35660˚ -71.02327˚ - 0 nm - -
O KBML APT - 0 ft / 0 m 44.58126˚ -71.17909˚ 133 nm 133 nm 357° / 357° -

Altitude Profile

Advertisement - Login to hide

KBOS

Details ICAO KBOS (BOS)
Name Boston Logan Intl
Region United States
Timezone America/New_York (UTC-5.0)
Stats Elevation 20 ft / 6 m (AMSL)
Location 42.363056° -71.006962°
Runways 6
Magnetic Variation 14.672° W

METAR

KBOS 132254Z 26018G31KT 10SM FEW035 M04/M13 A2943 RMK AO2 PK WND 26037/2232 SLP964 T10441128

Decode

TAF

TAF AMD KBOS 132113Z 1321/1424 27020G36KT P6SM FEW035 FM140000 26018G30KT P6SM SKC FM140400 25011KT P6SM OVC250 FM140900 25010G21KT P6SM OVC050 FM141100 26009KT P6SM OVC050 FM141700 28012KT P6SM SCT070 FM142300 28013G23KT P6SM SKC

Decode

Departure Runways

ID Width Length Bearing (true) Bearing (mag) Surface Threshold Offset Overrun Length
04L 151 ft / 46 m 7,868 ft / 2,398 m 19.67° 34.34° Asphalt 0 ft / 0 m 0 ft / 0 m
04R 151 ft / 46 m 10,014 ft / 3,052 m 19.67° 34.34° Asphalt 1,155 ft / 352 m 0 ft / 0 m
09 151 ft / 46 m 6,985 ft / 2,129 m 76.51° 91.18° Asphalt 0 ft / 0 m 0 ft / 0 m
14 98 ft / 30 m 4,995 ft / 1,522 m 125.75° 140.42° Asphalt 0 ft / 0 m 0 ft / 0 m
15L 98 ft / 30 m 2,556 ft / 779 m 135.29° 149.96° Asphalt 0 ft / 0 m 98 ft / 30 m
15R 151 ft / 46 m 10,078 ft / 3,072 m 135.26° 149.93° Asphalt 879 ft / 268 m 200 ft / 61 m
22L 151 ft / 46 m 10,014 ft / 3,052 m 199.68° 214.35° Asphalt 1,198 ft / 365 m 200 ft / 61 m
22R 151 ft / 46 m 7,868 ft / 2,398 m 199.67° 214.34° Asphalt 814 ft / 248 m 200 ft / 61 m
27 151 ft / 46 m 6,985 ft / 2,129 m 256.53° 271.20° Asphalt 0 ft / 0 m 161 ft / 49 m
32 98 ft / 30 m 4,995 ft / 1,522 m 305.76° 320.43° Asphalt 0 ft / 0 m 801 ft / 244 m
33L 151 ft / 46 m 10,078 ft / 3,072 m 315.28° 329.95° Asphalt 0 ft / 0 m 174 ft / 53 m
33R 98 ft / 30 m 2,556 ft / 779 m 315.29° 329.96° Asphalt 0 ft / 0 m 98 ft / 30 m

KBML

Details ICAO KBML
Name BERLIN MUNI
Region United States
Timezone America/New_York (UTC-5.0)
Stats Elevation 1,161 ft / 354 m (AMSL)
Location 44.574402° -71.176370°
Runways 1
Magnetic Variation 15.218° W

METAR

KBML 132252Z AUTO 32009KT 1SM -SN VV013 M13/M16 A2927 RMK AO2 SLP933 P0000 T11331161

Decode

TAF

Not found

Destination Runways

ID Width Length Bearing (true) Bearing (mag) Surface Threshold Offset Overrun Length
18 100 ft / 30 m 5,204 ft / 1,586 m 164.25° 179.47° Asphalt 0 ft / 0 m 0 ft / 0 m
36 100 ft / 30 m 5,204 ft / 1,586 m 344.25° 359.47° Asphalt 0 ft / 0 m 0 ft / 0 m